MCK weather

Mc Cook Ben Nelson Regional Airport
Mc Cook, Nebraska, United States

Public forecast

Using degrees Fahrenheit for public forecast. Weather courtesy of forecast.io.

Current aviation weather report (METAR) for Mc Cook Ben Nelson Regional Airport

Retrieved 2019/10/22 08:53 UTC (48 minutes ago):

KMCK 220853Z AUTO 29016KT 10SM CLR 02/M04 A3006 RMK AO2 SLP186 T00221039 50004

Aviation forecast (TAF) for Mc Cook Ben Nelson Regional Airport

Retrieved 2019/10/22 06:22 UTC (3 hours ago):

TAF KMCK 220520Z 2206/2306 28010KT P6SM FEW070 FM221600 29010G18KT P6SM SKC FM230100 24005KT P6SM SKC